Streetsboro, Ohio
Current Conditions -  °F | °C
As of 8:18 PM on Wednesday 22 Oct 2014 (Local Time) from KPOV Reporting Station
Broken Clouds Broken Clouds  
Wind Chill: 45°   Ceiling: 3800
Heat Index: 47°   Visibility: 10mi
Dew Point: 41°   Wind: 5mph
Humidity: 79%   Direction: 300°WNW
Pressure: 30.22"   Gusts: NA
Location:  41.24°N, 81.34°W
Report Text: KPOV 230018Z AUTO 30004KT 10SM BKN038 08/05 A3022 RMK AO2 T00820048
Loading
Personal Weather Stations






























Interactive Weather Map
Tropical Storm Tracking
New forecast layout! Learn more

10-Day Weather Forecast

Advertisements
Track Severe Weather on mobile